Terminal Aerodrome Forecast
Issued by NWS Wakefield, VA

Home | Current Version | Previous Version | Text Only | Print | Product List | Glossary On
Versions: 1 2 3 4 5 6 7 8 9 10 11 12 13 14
000
FTUS41 KAKQ 251725
TAFSBY
TAF
KSBY 251725Z 2518/2618 24010G17KT P6SM SCT250
     FM252300 20006KT P6SM BKN150
     FM260200 12006KT P6SM BKN090
     FM260900 07007KT P6SM OVC020
     FM261100 07005KT 3SM BR OVC010
     FM261300 08006KT P6SM OVC008=

USA.gov is the U.S. government's official web portal to all federal, state and local government web resources and services.